Terminal Aerodrome Forecast
Issued by NWS

Current Version | Previous Version | Text Only | Print | Product List | Glossary Off
Versions: 1 2 3 4 5 6 7 8 9 10 11 12 13 14 15 16 17

000
FTUS41 KILN 180011 AAA
TAFLUK
TAF AMD
KLUK 180011Z 1800/1824 20008KT 5SM -SHRA VCTS SCT040CB BKN100
     FM180200 22010KT P6SM SCT040 BKN090
     FM180700 24004KT 5SM BR FEW100
     FM181400 27010KT P6SM SCT035
     FM182100 28008KT P6SM SKC=

USA.gov is the U.S. government's official web portal to all federal, state and local government web resources and services.